sensor_id;sensor_type;location;lat;lon;timestamp;pressure;altitude;pressure_sealevel;temperature;humidity
20115;BME280;10218;42.874;25.320;2023-12-04T00:00:26;97754.97;;;3.88;100.00
20115;BME280;10218;42.874;25.320;2023-12-04T00:02:54;97763.34;;;3.71;100.00
20115;BME280;10218;42.874;25.320;2023-12-04T00:05:21;97771.31;;;3.82;100.00
20115;BME280;10218;42.874;25.320;2023-12-04T00:07:49;97774.69;;;3.84;100.00
20115;BME280;10218;42.874;25.320;2023-12-04T00:10:17;97774.53;;;3.86;100.00
20115;BME280;10218;42.874;25.320;2023-12-04T00:12:45;97776.47;;;4.30;100.00
20115;BME280;10218;42.874;25.320;2023-12-04T00:15:12;97781.50;;;4.11;100.00
20115;BME280;10218;42.874;25.320;2023-12-04T00:17:39;97778.44;;;3.58;100.00
20115;BME280;10218;42.874;25.320;2023-12-04T00:20:08;97783.53;;;3.72;100.00
20115;BME280;10218;42.874;25.320;2023-12-04T00:22:36;97785.47;;;3.81;100.00
20115;BME280;10218;42.874;25.320;2023-12-04T00:25:05;97779.47;;;3.79;100.00
20115;BME280;10218;42.874;25.320;2023-12-04T00:27:33;97788.91;;;3.71;100.00
20115;BME280;10218;42.874;25.320;2023-12-04T00:30:00;97794.31;;;4.04;100.00
20115;BME280;10218;42.874;25.320;2023-12-04T00:32:31;97799.19;;;3.86;100.00
20115;BME280;10218;42.874;25.320;2023-12-04T00:34:58;97793.22;;;3.96;100.00
20115;BME280;10218;42.874;25.320;2023-12-04T00:37:26;97803.00;;;3.48;100.00
20115;BME280;10218;42.874;25.320;2023-12-04T00:39:53;97805.28;;;3.52;100.00
20115;BME280;10218;42.874;25.320;2023-12-04T00:42:21;97817.56;;;3.88;100.00
20115;BME280;10218;42.874;25.320;2023-12-04T00:44:49;97812.38;;;3.75;100.00
20115;BME280;10218;42.874;25.320;2023-12-04T00:47:17;97827.88;;;3.56;100.00
20115;BME280;10218;42.874;25.320;2023-12-04T00:49:44;97813.66;;;3.22;100.00
20115;BME280;10218;42.874;25.320;2023-12-04T00:52:11;97822.09;;;3.51;100.00
20115;BME280;10218;42.874;25.320;2023-12-04T00:54:41;97822.09;;;3.75;100.00
20115;BME280;10218;42.874;25.320;2023-12-04T00:57:08;97825.16;;;3.93;100.00
20115;BME280;10218;42.874;25.320;2023-12-04T00:59:36;97832.91;;;3.48;100.00
20115;BME280;10218;42.874;25.320;2023-12-04T01:02:06;97842.88;;;3.32;100.00
20115;BME280;10218;42.874;25.320;2023-12-04T01:04:34;97837.25;;;3.13;100.00
20115;BME280;10218;42.874;25.320;2023-12-04T01:07:01;97838.50;;;3.67;100.00
20115;BME280;10218;42.874;25.320;2023-12-04T01:09:29;97832.44;;;3.78;100.00
20115;BME280;10218;42.874;25.320;2023-12-04T01:11:56;97840.47;;;3.76;100.00
20115;BME280;10218;42.874;25.320;2023-12-04T01:14:23;97841.50;;;3.39;100.00
20115;BME280;10218;42.874;25.320;2023-12-04T01:16:51;97838.00;;;3.15;100.00
20115;BME280;10218;42.874;25.320;2023-12-04T01:19:18;97845.97;;;3.26;100.00
20115;BME280;10218;42.874;25.320;2023-12-04T01:21:45;97848.81;;;3.59;100.00
20115;BME280;10218;42.874;25.320;2023-12-04T01:24:15;97852.53;;;3.80;100.00
20115;BME280;10218;42.874;25.320;2023-12-04T01:26:42;97849.59;;;3.72;100.00
20115;BME280;10218;42.874;25.320;2023-12-04T01:29:09;97836.81;;;3.42;100.00
20115;BME280;10218;42.874;25.320;2023-12-04T01:31:36;97851.28;;;3.13;100.00
20115;BME280;10218;42.874;25.320;2023-12-04T01:34:03;97848.12;;;3.08;100.00
20115;BME280;10218;42.874;25.320;2023-12-04T01:36:30;97846.63;;;3.17;100.00
20115;BME280;10218;42.874;25.320;2023-12-04T01:38:58;97853.53;;;3.43;100.00
20115;BME280;10218;42.874;25.320;2023-12-04T01:41:25;97850.88;;;3.07;100.00
20115;BME280;10218;42.874;25.320;2023-12-04T01:43:52;97846.38;;;3.32;100.00
20115;BME280;10218;42.874;25.320;2023-12-04T01:46:19;97844.34;;;2.99;100.00
20115;BME280;10218;42.874;25.320;2023-12-04T01:48:46;97848.97;;;3.45;100.00
20115;BME280;10218;42.874;25.320;2023-12-04T01:51:14;97843.22;;;3.51;100.00
20115;BME280;10218;42.874;25.320;2023-12-04T01:53:44;97845.50;;;3.44;100.00
20115;BME280;10218;42.874;25.320;2023-12-04T01:56:13;97851.25;;;3.26;100.00
20115;BME280;10218;42.874;25.320;2023-12-04T01:58:42;97846.53;;;3.42;100.00
20115;BME280;10218;42.874;25.320;2023-12-04T02:01:10;97847.69;;;3.74;100.00
20115;BME280;10218;42.874;25.320;2023-12-04T02:03:38;97850.50;;;3.60;100.00
20115;BME280;10218;42.874;25.320;2023-12-04T02:06:08;97852.44;;;3.93;100.00
20115;BME280;10218;42.874;25.320;2023-12-04T02:08:37;97842.03;;;3.31;100.00
20115;BME280;10218;42.874;25.320;2023-12-04T02:11:05;97853.94;;;3.13;100.00
20115;BME280;10218;42.874;25.320;2023-12-04T02:13:33;97860.84;;;3.27;100.00
20115;BME280;10218;42.874;25.320;2023-12-04T02:16:03;97865.09;;;3.53;100.00
20115;BME280;10218;42.874;25.320;2023-12-04T02:18:34;97860.88;;;3.51;100.00
20115;BME280;10218;42.874;25.320;2023-12-04T02:21:01;97860.66;;;3.30;100.00
20115;BME280;10218;42.874;25.320;2023-12-04T02:23:29;97864.59;;;3.48;100.00
20115;BME280;10218;42.874;25.320;2023-12-04T02:26:09;97855.78;;;3.60;100.00
20115;BME280;10218;42.874;25.320;2023-12-04T02:28:38;97866.13;;;3.63;100.00
20115;BME280;10218;42.874;25.320;2023-12-04T02:31:06;97868.38;;;3.80;100.00
20115;BME280;10218;42.874;25.320;2023-12-04T02:33:35;97863.66;;;3.00;100.00
20115;BME280;10218;42.874;25.320;2023-12-04T02:36:05;97866.22;;;3.38;100.00
20115;BME280;10218;42.874;25.320;2023-12-04T02:38:33;97876.03;;;2.87;100.00
20115;BME280;10218;42.874;25.320;2023-12-04T02:41:01;97871.25;;;3.41;100.00
20115;BME280;10218;42.874;25.320;2023-12-04T02:43:28;97883.16;;;3.59;100.00
20115;BME280;10218;42.874;25.320;2023-12-04T02:45:56;97881.09;;;3.03;100.00
20115;BME280;10218;42.874;25.320;2023-12-04T02:48:24;97872.53;;;3.35;100.00
20115;BME280;10218;42.874;25.320;2023-12-04T02:50:51;97874.25;;;2.87;100.00
20115;BME280;10218;42.874;25.320;2023-12-04T02:53:19;97850.78;;;3.08;100.00
20115;BME280;10218;42.874;25.320;2023-12-04T02:55:46;97867.66;;;3.42;100.00
20115;BME280;10218;42.874;25.320;2023-12-04T02:58:13;97878.06;;;3.56;100.00
20115;BME280;10218;42.874;25.320;2023-12-04T03:00:40;97881.69;;;3.06;100.00
20115;BME280;10218;42.874;25.320;2023-12-04T03:03:07;97873.00;;;3.29;100.00
20115;BME280;10218;42.874;25.320;2023-12-04T03:05:35;97879.53;;;2.87;100.00
20115;BME280;10218;42.874;25.320;2023-12-04T03:08:03;97886.78;;;3.09;100.00
20115;BME280;10218;42.874;25.320;2023-12-04T03:10:30;97890.34;;;3.21;100.00
20115;BME280;10218;42.874;25.320;2023-12-04T03:12:57;97886.25;;;3.04;100.00
20115;BME280;10218;42.874;25.320;2023-12-04T03:15:24;97887.44;;;2.75;100.00
20115;BME280;10218;42.874;25.320;2023-12-04T03:17:52;97900.28;;;2.54;100.00
20115;BME280;10218;42.874;25.320;2023-12-04T03:20:19;97890.72;;;2.78;100.00
20115;BME280;10218;42.874;25.320;2023-12-04T03:22:47;97896.28;;;3.12;100.00
20115;BME280;10218;42.874;25.320;2023-12-04T03:25:15;97891.69;;;3.39;100.00
20115;BME280;10218;42.874;25.320;2023-12-04T03:27:42;97899.06;;;2.72;100.00
20115;BME280;10218;42.874;25.320;2023-12-04T03:30:10;97897.53;;;3.06;100.00
20115;BME280;10218;42.874;25.320;2023-12-04T03:32:37;97902.81;;;3.19;100.00
20115;BME280;10218;42.874;25.320;2023-12-04T03:35:04;97895.69;;;3.68;100.00
20115;BME280;10218;42.874;25.320;2023-12-04T03:37:32;97896.19;;;3.50;100.00
20115;BME280;10218;42.874;25.320;2023-12-04T03:39:59;97903.50;;;2.84;100.00
20115;BME280;10218;42.874;25.320;2023-12-04T03:42:26;97897.16;;;2.87;100.00
20115;BME280;10218;42.874;25.320;2023-12-04T03:44:54;97898.66;;;3.27;100.00
20115;BME280;10218;42.874;25.320;2023-12-04T03:47:21;97900.81;;;3.59;100.00
20115;BME280;10218;42.874;25.320;2023-12-04T03:49:49;97906.13;;;3.46;100.00
20115;BME280;10218;42.874;25.320;2023-12-04T03:52:17;97899.44;;;3.77;100.00
20115;BME280;10218;42.874;25.320;2023-12-04T03:54:44;97899.28;;;3.43;100.00
20115;BME280;10218;42.874;25.320;2023-12-04T03:57:14;97908.94;;;3.19;100.00
20115;BME280;10218;42.874;25.320;2023-12-04T03:59:43;97908.81;;;3.21;100.00
20115;BME280;10218;42.874;25.320;2023-12-04T04:02:11;97900.09;;;3.08;100.00
20115;BME280;10218;42.874;25.320;2023-12-04T04:04:38;97913.06;;;3.11;100.00
20115;BME280;10218;42.874;25.320;2023-12-04T04:07:05;97907.47;;;2.90;100.00
20115;BME280;10218;42.874;25.320;2023-12-04T04:09:32;97912.53;;;2.80;100.00
20115;BME280;10218;42.874;25.320;2023-12-04T04:12:00;97910.75;;;2.81;100.00
20115;BME280;10218;42.874;25.320;2023-12-04T04:14:27;97916.41;;;3.25;100.00
20115;BME280;10218;42.874;25.320;2023-12-04T04:16:55;97918.84;;;3.28;100.00
20115;BME280;10218;42.874;25.320;2023-12-04T04:19:22;97921.63;;;3.01;100.00
20115;BME280;10218;42.874;25.320;2023-12-04T04:21:49;97924.69;;;2.70;100.00
20115;BME280;10218;42.874;25.320;2023-12-04T04:24:16;97926.38;;;2.96;100.00
20115;BME280;10218;42.874;25.320;2023-12-04T04:26:43;97927.75;;;3.15;100.00
20115;BME280;10218;42.874;25.320;2023-12-04T04:29:10;97925.12;;;3.51;100.00
20115;BME280;10218;42.874;25.320;2023-12-04T04:31:37;97928.87;;;3.11;100.00
20115;BME280;10218;42.874;25.320;2023-12-04T04:34:05;97932.91;;;2.53;100.00
20115;BME280;10218;42.874;25.320;2023-12-04T04:36:32;97927.53;;;3.05;100.00
20115;BME280;10218;42.874;25.320;2023-12-04T04:38:59;97928.37;;;3.06;100.00
20115;BME280;10218;42.874;25.320;2023-12-04T04:41:26;97919.50;;;3.19;100.00
20115;BME280;10218;42.874;25.320;2023-12-04T04:43:54;97919.09;;;2.87;100.00
20115;BME280;10218;42.874;25.320;2023-12-04T04:46:21;97923.09;;;2.42;100.00
20115;BME280;10218;42.874;25.320;2023-12-04T04:48:48;97935.03;;;2.48;100.00
20115;BME280;10218;42.874;25.320;2023-12-04T04:51:15;97929.88;;;2.84;100.00
20115;BME280;10218;42.874;25.320;2023-12-04T04:53:42;97936.00;;;2.72;100.00
20115;BME280;10218;42.874;25.320;2023-12-04T04:56:10;97920.44;;;3.18;100.00
20115;BME280;10218;42.874;25.320;2023-12-04T04:58:38;97923.19;;;3.17;100.00
20115;BME280;10218;42.874;25.320;2023-12-04T05:01:05;97929.38;;;3.41;100.00
20115;BME280;10218;42.874;25.320;2023-12-04T05:03:32;97930.69;;;3.23;100.00
20115;BME280;10218;42.874;25.320;2023-12-04T05:06:00;97933.88;;;2.90;100.00
20115;BME280;10218;42.874;25.320;2023-12-04T05:08:27;97933.03;;;2.77;100.00
20115;BME280;10218;42.874;25.320;2023-12-04T05:10:55;97936.00;;;2.72;100.00
20115;BME280;10218;42.874;25.320;2023-12-04T05:13:22;97934.72;;;2.78;100.00
20115;BME280;10218;42.874;25.320;2023-12-04T05:15:49;97915.88;;;3.33;100.00
20115;BME280;10218;42.874;25.320;2023-12-04T05:18:17;97936.56;;;3.39;100.00
20115;BME280;10218;42.874;25.320;2023-12-04T05:20:44;97945.06;;;3.19;100.00
20115;BME280;10218;42.874;25.320;2023-12-04T05:23:11;97943.06;;;2.59;100.00
20115;BME280;10218;42.874;25.320;2023-12-04T05:25:38;97947.47;;;2.46;100.00
20115;BME280;10218;42.874;25.320;2023-12-04T05:28:07;97946.53;;;2.72;100.00
20115;BME280;10218;42.874;25.320;2023-12-04T05:30:34;97942.31;;;2.57;100.00
20115;BME280;10218;42.874;25.320;2023-12-04T05:33:02;97950.56;;;2.78;100.00
20115;BME280;10218;42.874;25.320;2023-12-04T05:35:29;97936.81;;;2.60;100.00
20115;BME280;10218;42.874;25.320;2023-12-04T05:38:00;97946.41;;;2.61;100.00
20115;BME280;10218;42.874;25.320;2023-12-04T05:40:27;97957.44;;;2.93;100.00
20115;BME280;10218;42.874;25.320;2023-12-04T05:42:54;97958.66;;;3.25;100.00
20115;BME280;10218;42.874;25.320;2023-12-04T05:45:22;97964.25;;;3.21;100.00
20115;BME280;10218;42.874;25.320;2023-12-04T05:47:49;97949.88;;;3.37;100.00
20115;BME280;10218;42.874;25.320;2023-12-04T05:50:16;97966.19;;;2.93;100.00
20115;BME280;10218;42.874;25.320;2023-12-04T05:52:43;97964.88;;;3.37;100.00
20115;BME280;10218;42.874;25.320;2023-12-04T05:55:10;97974.31;;;3.28;100.00
20115;BME280;10218;42.874;25.320;2023-12-04T05:57:40;97961.56;;;3.10;100.00
20115;BME280;10218;42.874;25.320;2023-12-04T06:00:08;97984.13;;;3.26;100.00
20115;BME280;10218;42.874;25.320;2023-12-04T06:02:41;97973.03;;;3.21;100.00
20115;BME280;10218;42.874;25.320;2023-12-04T06:05:09;97982.00;;;3.31;100.00
20115;BME280;10218;42.874;25.320;2023-12-04T06:07:37;97982.00;;;2.68;100.00
20115;BME280;10218;42.874;25.320;2023-12-04T06:10:04;97991.31;;;3.12;100.00
20115;BME280;10218;42.874;25.320;2023-12-04T06:12:32;97999.31;;;3.48;100.00
20115;BME280;10218;42.874;25.320;2023-12-04T06:14:59;98000.62;;;3.30;100.00
20115;BME280;10218;42.874;25.320;2023-12-04T06:17:28;98001.00;;;3.36;100.00
20115;BME280;10218;42.874;25.320;2023-12-04T06:19:55;97995.41;;;3.41;100.00
20115;BME280;10218;42.874;25.320;2023-12-04T06:22:22;98004.41;;;3.38;100.00
20115;BME280;10218;42.874;25.320;2023-12-04T06:24:50;98005.44;;;3.49;100.00
20115;BME280;10218;42.874;25.320;2023-12-04T06:27:18;98008.22;;;3.22;100.00
20115;BME280;10218;42.874;25.320;2023-12-04T06:29:49;98011.06;;;3.19;100.00
20115;BME280;10218;42.874;25.320;2023-12-04T06:32:18;98021.50;;;3.08;100.00
20115;BME280;10218;42.874;25.320;2023-12-04T06:34:46;98020.84;;;3.67;100.00
20115;BME280;10218;42.874;25.320;2023-12-04T06:37:14;98031.62;;;3.52;100.00
20115;BME280;10218;42.874;25.320;2023-12-04T06:39:42;98029.66;;;3.55;100.00
20115;BME280;10218;42.874;25.320;2023-12-04T06:42:11;98029.19;;;4.10;100.00
20115;BME280;10218;42.874;25.320;2023-12-04T06:44:41;98041.19;;;3.29;100.00
20115;BME280;10218;42.874;25.320;2023-12-04T06:47:09;98045.69;;;3.01;100.00
20115;BME280;10218;42.874;25.320;2023-12-04T06:49:36;98028.19;;;3.38;100.00
20115;BME280;10218;42.874;25.320;2023-12-04T06:52:04;98030.81;;;4.00;100.00
20115;BME280;10218;42.874;25.320;2023-12-04T06:54:32;98038.47;;;4.63;100.00
20115;BME280;10218;42.874;25.320;2023-12-04T06:56:59;98037.03;;;5.74;100.00
20115;BME280;10218;42.874;25.320;2023-12-04T06:59:26;98039.94;;;6.90;100.00
20115;BME280;10218;42.874;25.320;2023-12-04T07:01:55;98033.56;;;6.50;100.00
20115;BME280;10218;42.874;25.320;2023-12-04T07:04:29;98039.50;;;7.57;100.00
20115;BME280;10218;42.874;25.320;2023-12-04T07:06:57;98039.09;;;8.22;100.00
20115;BME280;10218;42.874;25.320;2023-12-04T07:09:24;98036.50;;;7.41;100.00
20115;BME280;10218;42.874;25.320;2023-12-04T07:11:51;98036.75;;;7.68;100.00
20115;BME280;10218;42.874;25.320;2023-12-04T07:14:19;98039.50;;;7.57;100.00
20115;BME280;10218;42.874;25.320;2023-12-04T07:16:46;98039.09;;;7.82;100.00
20115;BME280;10218;42.874;25.320;2023-12-04T07:19:13;98040.63;;;7.85;100.00
20115;BME280;10218;42.874;25.320;2023-12-04T07:21:42;98045.94;;;7.85;100.00
20115;BME280;10218;42.874;25.320;2023-12-04T07:24:09;98050.87;;;7.89;90.98
20115;BME280;10218;42.874;25.320;2023-12-04T07:26:36;98055.97;;;8.02;70.14
20115;BME280;10218;42.874;25.320;2023-12-04T07:29:04;98050.37;;;9.87;57.75
20115;BME280;10218;42.874;25.320;2023-12-04T07:31:31;98052.31;;;9.58;58.85
20115;BME280;10218;42.874;25.320;2023-12-04T07:33:58;98040.84;;;8.33;56.72
20115;BME280;10218;42.874;25.320;2023-12-04T07:36:29;98046.88;;;8.54;61.58
20115;BME280;10218;42.874;25.320;2023-12-04T07:38:56;98052.38;;;9.39;52.30
20115;BME280;10218;42.874;25.320;2023-12-04T07:41:23;98050.97;;;8.18;55.03
20115;BME280;10218;42.874;25.320;2023-12-04T07:43:51;98048.56;;;8.55;57.14
20115;BME280;10218;42.874;25.320;2023-12-04T07:46:20;98053.84;;;9.51;60.93
20115;BME280;10218;42.874;25.320;2023-12-04T07:48:49;98048.47;;;9.70;63.27
20115;BME280;10218;42.874;25.320;2023-12-04T07:51:23;98065.53;;;9.97;54.69
20115;BME280;10218;42.874;25.320;2023-12-04T07:53:55;98059.94;;;6.08;65.77
20115;BME280;10218;42.874;25.320;2023-12-04T07:56:22;98066.44;;;5.82;100.00
20115;BME280;10218;42.874;25.320;2023-12-04T07:58:49;98059.38;;;6.48;100.00
20115;BME280;10218;42.874;25.320;2023-12-04T08:01:17;98060.78;;;9.06;62.03
20115;BME280;10218;42.874;25.320;2023-12-04T08:03:44;98067.06;;;8.47;61.16
20115;BME280;10218;42.874;25.320;2023-12-04T08:06:12;98055.66;;;7.95;66.56
20115;BME280;10218;42.874;25.320;2023-12-04T08:08:39;98050.28;;;10.16;53.92
20115;BME280;10218;42.874;25.320;2023-12-04T08:11:06;98061.97;;;11.05;49.60
20115;BME280;10218;42.874;25.320;2023-12-04T08:13:36;98065.13;;;9.26;50.37
20115;BME280;10218;42.874;25.320;2023-12-04T08:16:05;98062.38;;;10.20;46.38
20115;BME280;10218;42.874;25.320;2023-12-04T08:18:32;98063.47;;;11.08;42.95
20115;BME280;10218;42.874;25.320;2023-12-04T08:21:02;98066.03;;;11.96;41.74
20115;BME280;10218;42.874;25.320;2023-12-04T08:23:29;98068.62;;;12.14;41.29
20115;BME280;10218;42.874;25.320;2023-12-04T08:25:56;98073.69;;;10.59;43.40
20115;BME280;10218;42.874;25.320;2023-12-04T08:28:24;98062.41;;;9.64;44.11
20115;BME280;10218;42.874;25.320;2023-12-04T08:30:51;98082.03;;;6.95;50.31
20115;BME280;10218;42.874;25.320;2023-12-04T08:33:18;98080.94;;;6.65;59.37
20115;BME280;10218;42.874;25.320;2023-12-04T08:35:47;98088.06;;;5.31;67.77
20115;BME280;10218;42.874;25.320;2023-12-04T08:38:14;98096.44;;;5.14;70.20
20115;BME280;10218;42.874;25.320;2023-12-04T08:40:45;98084.16;;;4.54;79.38
20115;BME280;10218;42.874;25.320;2023-12-04T08:43:12;98081.44;;;4.91;80.40
20115;BME280;10218;42.874;25.320;2023-12-04T08:45:39;98096.44;;;5.14;91.75
20115;BME280;10218;42.874;25.320;2023-12-04T08:48:06;98092.09;;;4.18;97.73
20115;BME280;10218;42.874;25.320;2023-12-04T08:50:34;98088.87;;;4.38;100.00
20115;BME280;10218;42.874;25.320;2023-12-04T08:53:01;98093.34;;;4.61;100.00
20115;BME280;10218;42.874;25.320;2023-12-04T08:55:28;98096.34;;;6.06;80.08
20115;BME280;10218;42.874;25.320;2023-12-04T08:57:55;98089.78;;;6.55;71.73
20115;BME280;10218;42.874;25.320;2023-12-04T09:00:22;98080.63;;;6.36;73.15
20115;BME280;10218;42.874;25.320;2023-12-04T09:02:50;98083.81;;;6.08;75.74
20115;BME280;10218;42.874;25.320;2023-12-04T09:05:20;98091.44;;;5.33;69.55
20115;BME280;10218;42.874;25.320;2023-12-04T09:07:47;98078.47;;;5.52;73.31
20115;BME280;10218;42.874;25.320;2023-12-04T09:10:17;98071.84;;;6.25;68.11
20115;BME280;10218;42.874;25.320;2023-12-04T09:12:46;98067.50;;;6.78;65.71
20115;BME280;10218;42.874;25.320;2023-12-04T09:15:13;98063.03;;;5.80;70.64
20115;BME280;10218;42.874;25.320;2023-12-04T09:17:41;98068.59;;;6.32;72.71
20115;BME280;10218;42.874;25.320;2023-12-04T09:20:08;98059.56;;;6.67;57.91
20115;BME280;10218;42.874;25.320;2023-12-04T09:22:35;98057.22;;;6.84;56.24
20115;BME280;10218;42.874;25.320;2023-12-04T09:25:10;98053.69;;;10.09;50.96
20115;BME280;10218;42.874;25.320;2023-12-04T09:27:37;98052.47;;;9.94;47.56
20115;BME280;10218;42.874;25.320;2023-12-04T09:30:05;98049.72;;;7.31;53.17
20115;BME280;10218;42.874;25.320;2023-12-04T09:32:33;98058.28;;;6.82;53.01
20115;BME280;10218;42.874;25.320;2023-12-04T09:35:00;98035.81;;;9.26;49.63
20115;BME280;10218;42.874;25.320;2023-12-04T09:37:27;98041.59;;;8.92;50.48
20115;BME280;10218;42.874;25.320;2023-12-04T09:39:54;98028.47;;;11.19;44.92
20115;BME280;10218;42.874;25.320;2023-12-04T09:42:21;98028.34;;;10.67;42.83
20115;BME280;10218;42.874;25.320;2023-12-04T09:44:49;98030.16;;;9.48;45.62
20115;BME280;10218;42.874;25.320;2023-12-04T09:47:19;98016.47;;;15.13;37.92
20115;BME280;10218;42.874;25.320;2023-12-04T09:49:47;98010.66;;;12.05;38.58
20115;BME280;10218;42.874;25.320;2023-12-04T09:52:15;98035.06;;;12.94;38.02
20115;BME280;10218;42.874;25.320;2023-12-04T09:54:44;98018.22;;;14.44;36.39
20115;BME280;10218;42.874;25.320;2023-12-04T09:57:11;98021.66;;;13.26;39.68
20115;BME280;10218;42.874;25.320;2023-12-04T09:59:40;98005.09;;;12.40;41.35
20115;BME280;10218;42.874;25.320;2023-12-04T10:02:07;98017.22;;;11.33;41.43
20115;BME280;10218;42.874;25.320;2023-12-04T10:04:35;98015.88;;;12.65;41.20
20115;BME280;10218;42.874;25.320;2023-12-04T10:07:03;98013.28;;;14.56;38.37
20115;BME280;10218;42.874;25.320;2023-12-04T10:09:31;98018.47;;;13.55;35.74
20115;BME280;10218;42.874;25.320;2023-12-04T10:11:59;98009.50;;;12.08;39.32
20115;BME280;10218;42.874;25.320;2023-12-04T10:14:27;98013.63;;;13.18;36.76
20115;BME280;10218;42.874;25.320;2023-12-04T10:16:54;98006.13;;;13.93;38.22
20115;BME280;10218;42.874;25.320;2023-12-04T10:19:27;98008.06;;;11.18;40.82
20115;BME280;10218;42.874;25.320;2023-12-04T10:21:56;98003.69;;;12.78;39.54
20115;BME280;10218;42.874;25.320;2023-12-04T10:24:37;98013.06;;;11.39;40.61
20115;BME280;10218;42.874;25.320;2023-12-04T10:27:06;97984.16;;;10.55;42.44
20115;BME280;10218;42.874;25.320;2023-12-04T10:29:46;98002.03;;;11.85;41.28
20115;BME280;10218;42.874;25.320;2023-12-04T10:32:18;98000.53;;;12.99;39.33
20115;BME280;10218;42.874;25.320;2023-12-04T10:34:48;97993.47;;;14.57;35.88
20115;BME280;10218;42.874;25.320;2023-12-04T10:37:16;97994.31;;;13.47;37.89
20115;BME280;10218;42.874;25.320;2023-12-04T10:39:51;97997.37;;;12.37;39.52
20115;BME280;10218;42.874;25.320;2023-12-04T10:42:28;97988.09;;;13.47;38.92
20115;BME280;10218;42.874;25.320;2023-12-04T10:44:58;97988.28;;;15.61;35.39
20115;BME280;10218;42.874;25.320;2023-12-04T10:47:27;97992.31;;;15.95;34.09
20115;BME280;10218;42.874;25.320;2023-12-04T10:49:55;97989.44;;;12.12;37.58
20115;BME280;10218;42.874;25.320;2023-12-04T10:52:23;97993.47;;;12.98;38.74
20115;BME280;10218;42.874;25.320;2023-12-04T10:54:51;97983.47;;;13.96;37.62
20115;BME280;10218;42.874;25.320;2023-12-04T10:57:25;97982.41;;;13.50;36.55
20115;BME280;10218;42.874;25.320;2023-12-04T10:59:57;97985.91;;;14.13;37.14
20115;BME280;10218;42.874;25.320;2023-12-04T11:02:26;97976.75;;;15.53;34.06
20115;BME280;10218;42.874;25.320;2023-12-04T11:05:07;97986.94;;;16.09;33.55
20115;BME280;10218;42.874;25.320;2023-12-04T11:08:07;97973.06;;;15.31;34.82
20115;BME280;10218;42.874;25.320;2023-12-04T11:10:41;97980.19;;;17.77;31.65
20115;BME280;10218;42.874;25.320;2023-12-04T11:13:21;97971.09;;;18.25;31.84
20115;BME280;10218;42.874;25.320;2023-12-04T11:15:52;97968.75;;;17.26;33.01
20115;BME280;10218;42.874;25.320;2023-12-04T11:18:23;97981.22;;;11.53;40.65
20115;BME280;10218;42.874;25.320;2023-12-04T11:20:55;97976.53;;;12.07;41.26
20115;BME280;10218;42.874;25.320;2023-12-04T11:23:23;97967.13;;;12.53;40.14
20115;BME280;10218;42.874;25.320;2023-12-04T11:25:51;97978.38;;;11.47;41.63
20115;BME280;10218;42.874;25.320;2023-12-04T11:28:20;97980.19;;;12.06;41.47
20115;BME280;10218;42.874;25.320;2023-12-04T11:30:47;97986.63;;;11.10;41.65
20115;BME280;10218;42.874;25.320;2023-12-04T11:33:17;97987.59;;;13.11;40.10
20115;BME280;10218;42.874;25.320;2023-12-04T11:35:45;97975.56;;;10.07;44.08
20115;BME280;10218;42.874;25.320;2023-12-04T11:38:16;97976.41;;;11.31;42.83
20115;BME280;10218;42.874;25.320;2023-12-04T11:40:46;97981.41;;;13.10;40.84
20115;BME280;10218;42.874;25.320;2023-12-04T11:43:27;97968.28;;;12.51;41.22
20115;BME280;10218;42.874;25.320;2023-12-04T11:46:08;97961.91;;;16.01;35.62
20115;BME280;10218;42.874;25.320;2023-12-04T11:48:37;97963.84;;;14.88;37.68
20115;BME280;10218;42.874;25.320;2023-12-04T11:51:08;97955.03;;;14.09;37.33
20115;BME280;10218;42.874;25.320;2023-12-04T11:53:38;97954.84;;;14.95;37.41
20115;BME280;10218;42.874;25.320;2023-12-04T11:56:11;97951.50;;;11.82;40.12
20115;BME280;10218;42.874;25.320;2023-12-04T11:58:43;97954.59;;;13.10;38.38
20115;BME280;10218;42.874;25.320;2023-12-04T12:01:11;97941.22;;;14.74;39.25
20115;BME280;10218;42.874;25.320;2023-12-04T12:03:38;97945.34;;;12.80;42.20
20115;BME280;10218;42.874;25.320;2023-12-04T12:06:06;97943.53;;;13.21;43.53
20115;BME280;10218;42.874;25.320;2023-12-04T12:08:34;97942.84;;;13.11;42.96
20115;BME280;10218;42.874;25.320;2023-12-04T12:11:02;97942.13;;;14.36;39.95
20115;BME280;10218;42.874;25.320;2023-12-04T12:13:30;97944.06;;;13.72;42.83
20115;BME280;10218;42.874;25.320;2023-12-04T12:15:57;97949.66;;;12.33;43.39
20115;BME280;10218;42.874;25.320;2023-12-04T12:18:25;97944.56;;;13.84;41.73
20115;BME280;10218;42.874;25.320;2023-12-04T12:20:57;97954.03;;;13.47;43.44
20115;BME280;10218;42.874;25.320;2023-12-04T12:23:26;97936.37;;;14.47;41.88
20115;BME280;10218;42.874;25.320;2023-12-04T12:25:53;97934.59;;;13.92;42.08
20115;BME280;10218;42.874;25.320;2023-12-04T12:28:21;97934.34;;;11.41;46.34
20115;BME280;10218;42.874;25.320;2023-12-04T12:30:49;97932.47;;;12.02;44.82
20115;BME280;10218;42.874;25.320;2023-12-04T12:33:16;97935.19;;;11.16;46.11
20115;BME280;10218;42.874;25.320;2023-12-04T12:35:43;97923.69;;;12.41;43.82
20115;BME280;10218;42.874;25.320;2023-12-04T12:38:14;97921.19;;;12.40;45.37
20115;BME280;10218;42.874;25.320;2023-12-04T12:40:42;97902.63;;;11.21;45.95
20115;BME280;10218;42.874;25.320;2023-12-04T12:43:09;97918.88;;;9.68;51.49
20115;BME280;10218;42.874;25.320;2023-12-04T12:45:43;97917.06;;;9.31;55.36
20115;BME280;10218;42.874;25.320;2023-12-04T12:48:13;97918.31;;;10.19;54.77
20115;BME280;10218;42.874;25.320;2023-12-04T12:50:44;97911.59;;;9.87;55.66
20115;BME280;10218;42.874;25.320;2023-12-04T12:53:11;97913.16;;;9.26;60.85
20115;BME280;10218;42.874;25.320;2023-12-04T12:55:42;97920.53;;;9.41;58.09
20115;BME280;10218;42.874;25.320;2023-12-04T12:58:10;97913.63;;;10.03;58.42